createdAt,value
2019-04-06T00:01:47.791Z,17.85
2019-04-06T00:04:16.242Z,18.15
2019-04-06T00:06:44.730Z,19.48
2019-04-06T00:09:13.185Z,20.00
2019-04-06T00:11:41.619Z,19.27
2019-04-06T00:14:10.147Z,19.65
2019-04-06T00:16:38.570Z,18.90
2019-04-06T00:19:07.131Z,17.67
2019-04-06T00:21:35.542Z,18.92
2019-04-06T00:24:04.059Z,20.45
2019-04-06T00:26:32.506Z,20.60
2019-04-06T00:29:01.024Z,18.02
2019-04-06T00:31:45.816Z,19.55
2019-04-06T00:34:16.004Z,19.67
2019-04-06T00:36:44.459Z,18.17
2019-04-06T00:39:12.887Z,17.25
2019-04-06T00:41:41.335Z,16.50
2019-04-06T00:44:09.918Z,19.45
2019-04-06T00:46:38.380Z,17.02
2019-04-06T00:49:06.807Z,18.45
2019-04-06T00:51:35.337Z,19.40
2019-04-06T00:54:03.759Z,19.05
2019-04-06T00:56:32.203Z,19.77
2019-04-06T00:59:02.238Z,18.87
2019-04-06T01:01:30.678Z,19.35
2019-04-06T01:03:59.101Z,20.95
2019-04-06T01:06:27.555Z,21.02
2019-04-06T01:08:56.055Z,22.13
2019-04-06T01:11:24.502Z,21.25
2019-04-06T01:13:52.929Z,20.62
2019-04-06T01:16:21.382Z,20.57
2019-04-06T01:18:50.082Z,19.70
2019-04-06T01:21:18.519Z,19.95
2019-04-06T01:23:47.070Z,17.87
2019-04-06T01:26:15.589Z,20.15
2019-04-06T01:28:44.041Z,20.57
2019-04-06T01:31:12.459Z,18.32
2019-04-06T01:33:40.907Z,18.55
2019-04-06T01:36:10.947Z,18.12
2019-04-06T01:38:39.572Z,18.50
2019-04-06T01:41:08.159Z,20.75
2019-04-06T01:43:36.689Z,20.97
2019-04-06T01:46:05.298Z,20.08
2019-04-06T01:48:33.753Z,18.35
2019-04-06T01:51:02.183Z,18.73
2019-04-06T01:53:30.626Z,17.48
2019-04-06T01:56:00.730Z,17.52
2019-04-06T01:58:29.334Z,16.48
2019-04-06T02:01:02.132Z,18.65
2019-04-06T02:03:30.569Z,18.85
2019-04-06T02:05:58.995Z,19.07
2019-04-06T02:08:27.438Z,19.15
2019-04-06T02:10:55.931Z,18.10
2019-04-06T02:13:25.911Z,18.12
2019-04-06T02:15:54.330Z,18.82
2019-04-06T02:18:22.783Z,17.92
2019-04-06T02:20:51.321Z,17.75
2019-04-06T02:23:19.791Z,17.90
2019-04-06T02:25:49.747Z,18.52
2019-04-06T02:28:19.866Z,18.95
2019-04-06T02:31:06.235Z,19.23
2019-04-06T02:33:39.491Z,18.37
2019-04-06T02:36:18.318Z,18.52
2019-04-06T02:38:48.502Z,19.00
2019-04-06T02:41:18.999Z,17.82
2019-04-06T02:43:49.088Z,17.70
2019-04-06T02:46:17.506Z,18.12
2019-04-06T02:48:45.955Z,18.42
2019-04-06T02:51:14.374Z,19.45
2019-04-06T02:53:42.794Z,18.40
2019-04-06T02:56:11.561Z,16.93
2019-04-06T02:58:40.390Z,17.92
2019-04-06T03:01:08.900Z,16.55
2019-04-06T03:03:37.318Z,18.70
2019-04-06T03:06:06.015Z,18.25
2019-04-06T03:08:34.512Z,18.85
2019-04-06T03:11:03.092Z,19.07
2019-04-06T03:13:31.526Z,19.50
2019-04-06T03:16:01.667Z,17.98
2019-04-06T03:18:30.356Z,18.30
2019-04-06T03:20:58.937Z,18.10
2019-04-06T03:23:27.356Z,18.30
2019-04-06T03:25:55.803Z,18.30
2019-04-06T03:28:24.357Z,17.90
2019-04-06T03:30:52.851Z,17.65
2019-04-06T03:33:21.352Z,17.70
2019-04-06T03:35:51.239Z,17.95
2019-04-06T03:38:20.024Z,17.92
2019-04-06T03:40:48.471Z,17.65
2019-04-06T03:43:16.896Z,18.55
2019-04-06T03:45:46.915Z,18.52
2019-04-06T03:48:17.045Z,18.00
2019-04-06T03:50:45.502Z,20.43
2019-04-06T03:53:14.111Z,19.52
2019-04-06T03:55:42.589Z,19.48
2019-04-06T03:58:11.107Z,20.45
2019-04-06T04:00:39.537Z,20.00
2019-04-06T04:03:08.095Z,19.90
2019-04-06T04:05:36.644Z,18.12
2019-04-06T04:08:05.088Z,20.57
2019-04-06T04:10:36.297Z,19.32
2019-04-06T04:13:05.622Z,19.20
2019-04-06T04:15:34.489Z,19.10
2019-04-06T04:18:03.138Z,20.10
2019-04-06T04:20:33.123Z,17.65
2019-04-06T04:23:01.690Z,17.60
2019-04-06T04:25:30.245Z,16.95
2019-04-06T04:27:59.015Z,19.52
2019-04-06T04:30:32.990Z,18.15
2019-04-06T04:32:57.677Z,19.48
2019-04-06T04:35:26.163Z,18.37
2019-04-06T04:37:54.616Z,19.37
2019-04-06T04:40:23.107Z,18.32
2019-04-06T04:42:51.737Z,18.57
2019-04-06T04:45:20.305Z,18.25
2019-04-06T04:47:50.334Z,18.45
2019-04-06T04:50:19.112Z,20.52
2019-04-06T04:52:47.704Z,19.55
2019-04-06T04:55:16.158Z,18.62
2019-04-06T04:57:46.191Z,16.85
2019-04-06T05:00:14.980Z,19.50
2019-04-06T05:02:43.561Z,19.45
2019-04-06T05:05:12.159Z,17.90
2019-04-06T05:07:40.582Z,18.42
2019-04-06T05:10:09.518Z,17.90
2019-04-06T05:12:37.933Z,19.30
2019-04-06T05:15:09.663Z,19.57
2019-04-06T05:17:39.638Z,19.75
2019-04-06T05:20:09.122Z,21.07
2019-04-06T05:22:37.610Z,19.45
2019-04-06T05:25:07.201Z,19.77
2019-04-06T05:27:35.921Z,21.05
2019-04-06T05:30:06.743Z,21.05
2019-04-06T05:32:35.461Z,18.62
2019-04-06T05:35:05.456Z,19.70
2019-04-06T05:37:33.876Z,18.20
2019-04-06T05:40:02.323Z,18.30
2019-04-06T05:42:30.825Z,18.80
2019-04-06T05:44:59.321Z,18.90
2019-04-06T05:47:27.926Z,19.02
2019-04-06T05:49:56.376Z,19.25
2019-04-06T05:52:24.826Z,20.12
2019-04-06T05:54:56.427Z,18.05
2019-04-06T05:57:24.995Z,18.85
2019-04-06T05:59:53.590Z,20.25
2019-04-06T06:02:22.340Z,21.42
2019-04-06T06:04:50.875Z,19.50
2019-04-06T06:07:19.321Z,18.82
2019-04-06T06:09:47.760Z,19.82
2019-04-06T06:12:16.243Z,20.60
2019-04-06T06:14:44.651Z,20.32
2019-04-06T06:17:14.384Z,18.12
2019-04-06T06:19:43.033Z,18.15
2019-04-06T06:22:11.556Z,19.52
2019-04-06T06:24:40.072Z,19.57
2019-04-06T06:27:08.509Z,19.50
2019-04-06T06:29:36.939Z,19.55
2019-04-06T06:32:05.546Z,19.67
2019-04-06T06:34:33.981Z,20.02
2019-04-06T06:37:02.497Z,19.73
2019-04-06T06:39:31.201Z,20.82
2019-04-06T06:41:59.685Z,20.35
2019-04-06T06:44:28.166Z,20.40
2019-04-06T06:46:56.734Z,19.20
2019-04-06T06:49:25.266Z,20.95
2019-04-06T06:51:53.758Z,21.20
2019-04-06T06:54:24.166Z,23.07
2019-04-06T06:56:52.672Z,22.80
2019-04-06T06:59:21.118Z,22.13
2019-04-06T07:01:49.587Z,19.80
2019-04-06T07:04:18.137Z,20.25
2019-04-06T07:06:46.751Z,20.65
2019-04-06T07:09:15.276Z,21.40
2019-04-06T07:11:43.719Z,22.52
2019-04-06T07:14:12.287Z,22.58
2019-04-06T07:16:40.746Z,22.13
2019-04-06T07:19:09.217Z,24.72
2019-04-06T07:21:37.789Z,22.55
2019-04-06T07:24:06.358Z,23.30
2019-04-06T07:26:34.862Z,24.43
2019-04-06T07:29:03.334Z,23.92
2019-04-06T07:31:31.818Z,22.05
2019-04-06T07:34:02.024Z,24.45
2019-04-06T07:36:30.614Z,23.87
2019-04-06T07:38:59.399Z,23.15
2019-04-06T07:41:27.872Z,23.10
2019-04-06T07:43:56.297Z,24.27
2019-04-06T07:46:24.837Z,24.65
2019-04-06T07:48:53.306Z,25.00
2019-04-06T07:51:21.784Z,23.70
2019-04-06T07:53:50.341Z,24.98
2019-04-06T07:56:20.621Z,23.02
2019-04-06T07:58:50.048Z,24.25
2019-04-06T08:01:19.105Z,25.05
2019-04-06T08:03:47.681Z,24.55
2019-04-06T08:06:16.209Z,24.80
2019-04-06T08:08:44.652Z,26.12
2019-04-06T08:11:13.116Z,23.47
2019-04-06T08:13:41.704Z,26.70
2019-04-06T08:16:10.253Z,28.65
2019-04-06T08:18:38.697Z,30.90
2019-04-06T08:21:07.143Z,29.52
2019-04-06T08:23:35.568Z,29.60
2019-04-06T08:26:04.101Z,31.55
2019-04-06T08:28:32.526Z,32.67
2019-04-06T08:31:01.034Z,33.33
2019-04-06T08:33:29.650Z,32.83
2019-04-06T08:35:58.240Z,30.95
2019-04-06T08:38:26.674Z,29.60
2019-04-06T08:40:55.140Z,30.27
2019-04-06T08:43:23.620Z,29.50
2019-04-06T08:45:52.289Z,28.05
2019-04-06T08:48:20.788Z,27.55
2019-04-06T08:50:49.236Z,25.70
2019-04-06T08:53:17.687Z,25.55
2019-04-06T08:55:46.135Z,26.52
2019-04-06T08:58:14.591Z,20.85
2019-04-06T09:00:43.102Z,23.27
2019-04-06T09:03:11.558Z,23.60
2019-04-06T09:05:40.048Z,22.52
2019-04-06T09:08:08.499Z,21.30
2019-04-06T09:10:36.922Z,19.13
2019-04-06T09:13:05.446Z,19.07
2019-04-06T09:15:33.891Z,20.97
2019-04-06T09:18:02.353Z,18.53
2019-04-06T09:20:30.777Z,15.67
2019-04-06T09:23:00.849Z,17.20
2019-04-06T09:25:29.285Z,14.23
2019-04-06T09:27:57.825Z,14.93
2019-04-06T09:30:26.335Z,15.10
2019-04-06T09:32:54.798Z,13.33
2019-04-06T09:35:23.535Z,15.70
2019-04-06T09:37:52.069Z,14.60
2019-04-06T09:40:20.510Z,14.07
2019-04-06T09:42:48.951Z,14.17
2019-04-06T09:45:28.487Z,15.80
2019-04-06T09:47:58.610Z,15.03
2019-04-06T09:50:28.832Z,14.63
2019-04-06T09:53:05.103Z,16.10
2019-04-06T09:55:38.316Z,15.47
2019-04-06T09:58:08.438Z,12.03
2019-04-06T10:00:41.483Z,12.40
2019-04-06T10:03:26.822Z,12.30
2019-04-06T10:05:59.746Z,12.13
2019-04-06T10:08:35.972Z,12.60
2019-04-06T10:11:08.994Z,12.23
2019-04-06T10:13:53.832Z,11.43
2019-04-06T10:16:32.673Z,13.30
2019-04-06T10:19:08.298Z,13.57
2019-04-06T10:21:54.906Z,15.57
2019-04-06T10:24:39.743Z,14.07
2019-04-06T10:27:15.602Z,14.30
2019-04-06T10:30:03.779Z,14.17
2019-04-06T10:32:33.881Z,13.60
2019-04-06T10:35:04.059Z,14.30
2019-04-06T10:37:39.829Z,13.60
2019-04-06T10:40:26.421Z,14.63
2019-04-06T10:42:56.510Z,15.40
2019-04-06T10:45:44.939Z,16.47
2019-04-06T10:48:24.349Z,13.33
2019-04-06T10:51:07.121Z,15.80
2019-04-06T10:53:37.454Z,15.53
2019-04-06T10:56:07.544Z,14.90
2019-04-06T10:58:43.672Z,16.83
2019-04-06T11:01:13.917Z,14.90
2019-04-06T11:03:49.617Z,15.83
2019-04-06T11:06:19.808Z,14.33
2019-04-06T11:09:04.975Z,15.00
2019-04-06T11:11:44.192Z,14.53
2019-04-06T11:14:17.127Z,14.67
2019-04-06T11:16:48.285Z,14.90
2019-04-06T11:19:34.306Z,14.53
2019-04-06T11:22:20.898Z,13.70
2019-04-06T11:25:06.009Z,12.60
2019-04-06T11:27:48.264Z,11.50
2019-04-06T11:30:35.426Z,11.97
2019-04-06T11:33:14.603Z,12.83
2019-04-06T11:35:47.482Z,12.50
2019-04-06T11:38:20.533Z,12.70
2019-04-06T11:40:50.682Z,14.00
2019-04-06T11:43:20.774Z,13.10
2019-04-06T11:45:54.145Z,13.00
2019-04-06T11:48:24.821Z,12.97
2019-04-06T11:51:11.231Z,13.20
2019-04-06T11:53:56.382Z,13.70
2019-04-06T11:56:35.554Z,13.77
2019-04-06T11:59:05.723Z,14.30
2019-04-06T12:01:50.916Z,12.60
2019-04-06T12:04:21.092Z,13.90
2019-04-06T12:06:56.931Z,14.87
2019-04-06T12:09:27.257Z,13.60
2019-04-06T12:12:03.948Z,12.40
2019-04-06T12:14:39.868Z,13.13
2019-04-06T12:17:13.252Z,13.70
2019-04-06T12:19:59.794Z,11.70
2019-04-06T12:22:35.909Z,12.20
2019-04-06T12:25:07.951Z,12.87
2019-04-06T12:27:56.501Z,11.20
2019-04-06T12:30:38.226Z,11.00
2019-04-06T12:33:25.459Z,11.50
2019-04-06T12:35:55.580Z,11.30
2019-04-06T12:38:34.599Z,11.83
2019-04-06T12:41:20.936Z,10.57
2019-04-06T12:44:07.847Z,11.73
2019-04-06T12:46:44.672Z,10.50
2019-04-06T12:49:14.754Z,11.27
2019-04-06T12:52:00.958Z,12.30
2019-04-06T12:54:37.088Z,12.70
2019-04-06T12:57:09.959Z,11.90
2019-04-06T12:59:40.122Z,12.80
2019-04-06T13:02:19.108Z,12.47
2019-04-06T13:04:55.055Z,12.43
2019-04-06T13:07:25.160Z,11.70
2019-04-06T13:09:58.014Z,10.53
2019-04-06T13:12:37.152Z,11.30
2019-04-06T13:15:17.581Z,11.43
2019-04-06T13:17:59.677Z,11.40
2019-04-06T13:20:30.061Z,10.80
2019-04-06T13:23:16.365Z,11.60
2019-04-06T13:25:46.445Z,11.27
2019-04-06T13:28:35.185Z,12.30
2019-04-06T13:31:05.570Z,10.97
2019-04-06T13:33:35.671Z,11.00
2019-04-06T13:36:05.927Z,10.63
2019-04-06T13:38:44.733Z,11.40
2019-04-06T13:41:23.568Z,11.20
2019-04-06T13:44:02.450Z,10.70
2019-04-06T13:46:44.433Z,12.00
2019-04-06T13:49:23.778Z,11.80
2019-04-06T13:52:02.925Z,12.13
2019-04-06T13:54:41.781Z,11.50
2019-04-06T13:57:24.125Z,11.77
2019-04-06T14:00:00.157Z,11.43
2019-04-06T14:02:30.300Z,10.97
2019-04-06T14:05:00.460Z,11.00
2019-04-06T14:07:33.509Z,11.87
2019-04-06T14:10:06.411Z,12.00
2019-04-06T14:12:44.995Z,11.33
2019-04-06T14:15:21.053Z,11.23
2019-04-06T14:18:07.406Z,10.67
2019-04-06T14:20:53.777Z,10.20
2019-04-06T14:23:29.986Z,9.50
2019-04-06T14:26:00.112Z,11.00
2019-04-06T14:28:46.414Z,10.67
2019-04-06T14:31:27.280Z,11.17
2019-04-06T14:34:07.471Z,11.60
2019-04-06T14:36:52.794Z,10.87
2019-04-06T14:39:22.932Z,10.60
2019-04-06T14:41:58.831Z,10.97
2019-04-06T14:44:37.908Z,10.37
2019-04-06T14:47:10.924Z,11.13
2019-04-06T14:49:56.415Z,12.17
2019-04-06T14:52:35.522Z,11.17
2019-04-06T14:55:15.166Z,10.50
2019-04-06T14:58:03.704Z,11.07
2019-04-06T15:00:36.818Z,9.53
2019-04-06T15:03:23.388Z,10.03
2019-04-06T15:05:53.483Z,11.07
2019-04-06T15:08:23.553Z,10.97
2019-04-06T15:11:10.364Z,10.43
2019-04-06T15:13:40.755Z,11.20
2019-04-06T15:16:25.981Z,11.23
2019-04-06T15:18:59.158Z,10.83
2019-04-06T15:21:32.315Z,10.70
2019-04-06T15:24:05.384Z,10.63
2019-04-06T15:26:35.498Z,11.80
2019-04-06T15:29:22.263Z,11.47
2019-04-06T15:32:01.970Z,11.10
2019-04-06T15:34:48.280Z,10.90
2019-04-06T15:37:34.874Z,10.60
2019-04-06T15:40:22.050Z,11.50
2019-04-06T15:43:01.771Z,11.80
2019-04-06T15:45:31.994Z,11.10
2019-04-06T15:48:08.268Z,10.00
2019-04-06T15:50:45.066Z,11.07
2019-04-06T15:53:17.864Z,10.70
2019-04-06T15:55:50.388Z,11.47
2019-04-06T15:58:32.685Z,10.83
2019-04-06T16:01:05.522Z,10.10
2019-04-06T16:03:37.722Z,9.90
2019-04-06T16:06:19.743Z,10.73
2019-04-06T16:09:06.111Z,11.37
2019-04-06T16:11:40.671Z,10.10
2019-04-06T16:14:22.760Z,10.50
2019-04-06T16:16:55.870Z,10.77
2019-04-06T16:19:25.953Z,10.00
2019-04-06T16:22:04.992Z,11.27
2019-04-06T16:24:41.594Z,9.80
2019-04-06T16:27:11.711Z,10.77
2019-04-06T16:29:47.910Z,9.87
2019-04-06T16:32:34.320Z,10.00
2019-04-06T16:35:20.364Z,8.97
2019-04-06T16:37:50.442Z,10.00
2019-04-06T16:40:36.727Z,10.00
2019-04-06T16:43:06.984Z,9.07
2019-04-06T16:45:38.906Z,10.60
2019-04-06T16:48:15.162Z,9.30
2019-04-06T16:50:47.724Z,9.83
2019-04-06T16:53:20.826Z,9.60
2019-04-06T16:55:50.945Z,8.60
2019-04-06T16:58:36.151Z,9.17
2019-04-06T17:01:16.245Z,8.30
2019-04-06T17:03:49.118Z,9.10
2019-04-06T17:06:34.271Z,9.07
2019-04-06T17:09:19.444Z,8.17
2019-04-06T17:12:06.127Z,10.00
2019-04-06T17:14:36.283Z,8.53
2019-04-06T17:17:06.374Z,8.60
2019-04-06T17:19:39.398Z,8.77
2019-04-06T17:22:28.138Z,9.70
2019-04-06T17:24:58.282Z,10.53
2019-04-06T17:27:28.467Z,9.93
2019-04-06T17:30:07.551Z,9.77
2019-04-06T17:32:53.653Z,8.47
2019-04-06T17:35:26.816Z,8.13
2019-04-06T17:37:59.632Z,8.43
2019-04-06T17:40:29.917Z,9.13
2019-04-06T17:43:00.128Z,8.20
2019-04-06T17:45:44.985Z,8.23
2019-04-06T17:48:33.962Z,8.17
2019-04-06T17:51:10.203Z,8.30
2019-04-06T17:53:58.468Z,8.50
2019-04-06T17:56:35.140Z,7.30
2019-04-06T17:59:22.150Z,9.80
2019-04-06T18:01:56.782Z,7.93
2019-04-06T18:04:35.991Z,8.20
2019-04-06T18:07:06.331Z,7.43
2019-04-06T18:09:42.161Z,7.50
2019-04-06T18:12:12.738Z,9.20
2019-04-06T18:14:41.366Z,8.10
2019-04-06T18:17:10.186Z,7.90
2019-04-06T18:19:38.662Z,8.07
2019-04-06T18:22:07.236Z,8.13
2019-04-06T18:24:36.702Z,7.90
2019-04-06T18:27:05.302Z,8.37
2019-04-06T18:29:34.616Z,9.37
2019-04-06T18:32:07.407Z,8.50
2019-04-06T18:34:35.853Z,7.10
2019-04-06T18:37:21.384Z,8.17
2019-04-06T18:39:51.584Z,7.33
2019-04-06T18:42:20.089Z,7.70
2019-04-06T18:44:48.539Z,20.17
2019-04-06T18:47:16.967Z,32.90
2019-04-06T18:49:45.413Z,16.77
2019-04-06T18:52:14.117Z,16.40
2019-04-06T18:54:42.564Z,11.50
2019-04-06T18:57:11.021Z,9.77
2019-04-06T18:59:39.678Z,8.70
2019-04-06T19:02:08.671Z,7.73
2019-04-06T19:04:37.383Z,7.83
2019-04-06T19:07:06.458Z,8.00
2019-04-06T19:09:35.100Z,8.10
2019-04-06T19:12:04.277Z,7.83
2019-04-06T19:14:34.378Z,7.63
2019-04-06T19:17:03.677Z,8.10
2019-04-06T19:19:32.130Z,8.10
2019-04-06T19:22:00.558Z,7.30
2019-04-06T19:24:29.679Z,7.60
2019-04-06T19:26:58.206Z,10.27
2019-04-06T19:29:26.635Z,9.70
2019-04-06T19:31:57.297Z,8.43
2019-04-06T19:34:25.231Z,7.97
2019-04-06T19:36:53.682Z,7.10
2019-04-06T19:39:22.123Z,7.60
2019-04-06T19:41:51.030Z,7.67
2019-04-06T19:44:19.613Z,7.67
2019-04-06T19:46:48.134Z,7.42
2019-04-06T19:49:16.644Z,6.95
2019-04-06T19:51:45.114Z,7.30
2019-04-06T19:54:13.772Z,7.83
2019-04-06T19:56:42.924Z,7.50
2019-04-06T19:59:13.444Z,6.78
2019-04-06T20:01:42.142Z,7.70
2019-04-06T20:04:11.333Z,7.60
2019-04-06T20:06:39.881Z,8.33
2019-04-06T20:09:08.629Z,8.05
2019-04-06T20:11:37.472Z,7.00
2019-04-06T20:14:06.215Z,7.70
2019-04-06T20:16:35.216Z,8.75
2019-04-06T20:19:04.432Z,8.95
2019-04-06T20:21:33.145Z,10.25
2019-04-06T20:24:01.659Z,11.65
2019-04-06T20:26:31.640Z,11.95
2019-04-06T20:29:01.383Z,10.43
2019-04-06T20:31:30.508Z,8.68
2019-04-06T20:33:59.038Z,9.53
2019-04-06T20:36:27.532Z,9.85
2019-04-06T20:38:56.580Z,8.95
2019-04-06T20:41:25.630Z,9.90
2019-04-06T20:43:54.247Z,8.75
2019-04-06T20:46:24.802Z,9.13
2019-04-06T20:48:53.832Z,10.60
2019-04-06T20:51:22.584Z,10.50
2019-04-06T20:53:51.181Z,10.75
2019-04-06T20:56:19.695Z,11.53
2019-04-06T20:58:48.219Z,11.50
2019-04-06T21:01:16.871Z,11.05
2019-04-06T21:03:45.403Z,12.20
2019-04-06T21:06:14.006Z,10.70
2019-04-06T21:08:42.603Z,11.80
2019-04-06T21:11:11.140Z,10.98
2019-04-06T21:13:40.743Z,9.55
2019-04-06T21:16:09.370Z,10.43
2019-04-06T21:18:37.803Z,10.15
2019-04-06T21:21:06.412Z,9.90
2019-04-06T21:23:34.967Z,11.00
2019-04-06T21:26:03.538Z,10.88
2019-04-06T21:28:32.096Z,9.43
2019-04-06T21:31:00.637Z,10.75
2019-04-06T21:33:29.275Z,10.28
2019-04-06T21:35:58.356Z,10.53
2019-04-06T21:38:28.365Z,10.45
2019-04-06T21:40:57.043Z,9.98
2019-04-06T21:43:25.503Z,9.30
2019-04-06T21:45:54.336Z,10.00
2019-04-06T21:48:23.302Z,10.40
2019-04-06T21:50:51.760Z,9.65
2019-04-06T21:53:20.342Z,10.08
2019-04-06T21:56:00.544Z,9.75
2019-04-06T21:58:20.794Z,10.08
2019-04-06T22:00:52.485Z,9.53
2019-04-06T22:03:23.351Z,9.40
2019-04-06T22:05:52.038Z,8.55
2019-04-06T22:08:20.500Z,9.23
2019-04-06T22:10:49.129Z,8.98
2019-04-06T22:13:18.365Z,9.05
2019-04-06T22:15:47.311Z,10.00
2019-04-06T22:18:15.913Z,9.90
2019-04-06T22:20:44.339Z,9.25
2019-04-06T22:23:13.109Z,8.63
2019-04-06T22:25:41.712Z,10.98
2019-04-06T22:28:10.885Z,9.88
2019-04-06T22:30:40.482Z,10.85
2019-04-06T22:33:09.293Z,10.23
2019-04-06T22:35:38.391Z,10.72
2019-04-06T22:38:08.018Z,10.65
2019-04-06T22:40:37.051Z,9.40
2019-04-06T22:43:05.723Z,9.30
2019-04-06T22:45:34.912Z,9.03
2019-04-06T22:48:03.545Z,9.93
2019-04-06T22:50:32.677Z,8.83
2019-04-06T22:53:01.178Z,9.13
2019-04-06T22:55:29.808Z,10.28
2019-04-06T22:57:58.398Z,8.63
2019-04-06T23:00:37.507Z,9.53
2019-04-06T23:03:22.790Z,7.78
2019-04-06T23:05:55.425Z,11.73
2019-04-06T23:08:23.889Z,9.40
2019-04-06T23:10:53.963Z,9.40
2019-04-06T23:13:22.459Z,8.80
2019-04-06T23:15:50.963Z,7.97
2019-04-06T23:18:19.726Z,8.53
2019-04-06T23:20:48.393Z,9.55
2019-04-06T23:23:16.807Z,9.63
2019-04-06T23:25:45.313Z,10.38
2019-04-06T23:28:14.375Z,10.50
2019-04-06T23:30:44.504Z,12.23
2019-04-06T23:33:13.039Z,11.12
2019-04-06T23:35:42.283Z,11.22
2019-04-06T23:38:11.229Z,10.93
2019-04-06T23:40:39.862Z,10.20
2019-04-06T23:43:08.448Z,9.65
2019-04-06T23:45:37.018Z,10.38
2019-04-06T23:48:05.974Z,9.65
2019-04-06T23:50:34.633Z,9.35
2019-04-06T23:53:03.172Z,10.08
2019-04-06T23:55:33.132Z,9.03
2019-04-06T23:58:01.663Z,9.48
